sensor_id;sensor_type;location;lat;lon;timestamp;temperature;humidity
19536;HTU21D;9913;51.168;4.124;2022-11-04T00:00:29;8.80;85.09
19536;HTU21D;9913;51.168;4.124;2022-11-04T00:02:57;8.79;85.42
19536;HTU21D;9913;51.168;4.124;2022-11-04T00:05:27;8.79;85.50
19536;HTU21D;9913;51.168;4.124;2022-11-04T00:07:56;8.76;85.47
19536;HTU21D;9913;51.168;4.124;2022-11-04T00:10:41;8.71;84.98
19536;HTU21D;9913;51.168;4.124;2022-11-04T00:13:27;8.64;85.16
19536;HTU21D;9913;51.168;4.124;2022-11-04T00:15:59;8.65;85.28
19536;HTU21D;9913;51.168;4.124;2022-11-04T00:18:45;8.66;85.10
19536;HTU21D;9913;51.168;4.124;2022-11-04T00:21:14;8.62;85.09
19536;HTU21D;9913;51.168;4.124;2022-11-04T00:24:00;8.61;84.87
19536;HTU21D;9913;51.168;4.124;2022-11-04T00:26:46;8.59;84.83
19536;HTU21D;9913;51.168;4.124;2022-11-04T00:29:32;8.58;84.57
19536;HTU21D;9913;51.168;4.124;2022-11-04T00:32:00;8.49;84.39
19536;HTU21D;9913;51.168;4.124;2022-11-04T00:34:46;8.47;84.57
19536;HTU21D;9913;51.168;4.124;2022-11-04T00:37:16;8.50;84.87
19536;HTU21D;9913;51.168;4.124;2022-11-04T00:39:45;8.42;84.81
19536;HTU21D;9913;51.168;4.124;2022-11-04T00:42:16;8.45;85.06
19536;HTU21D;9913;51.168;4.124;2022-11-04T00:44:44;8.48;85.29
19536;HTU21D;9913;51.168;4.124;2022-11-04T00:47:12;8.47;85.39
19536;HTU21D;9913;51.168;4.124;2022-11-04T00:49:41;8.45;85.61
19536;HTU21D;9913;51.168;4.124;2022-11-04T00:52:09;8.42;85.43
19536;HTU21D;9913;51.168;4.124;2022-11-04T00:54:39;8.42;85.39
19536;HTU21D;9913;51.168;4.124;2022-11-04T00:57:08;8.39;85.80
19536;HTU21D;9913;51.168;4.124;2022-11-04T00:59:36;8.31;85.67
19536;HTU21D;9913;51.168;4.124;2022-11-04T01:02:06;8.30;85.55
19536;HTU21D;9913;51.168;4.124;2022-11-04T01:04:35;8.28;85.91
19536;HTU21D;9913;51.168;4.124;2022-11-04T01:07:03;8.32;85.99
19536;HTU21D;9913;51.168;4.124;2022-11-04T01:09:31;8.30;86.09
19536;HTU21D;9913;51.168;4.124;2022-11-04T01:12:01;8.28;86.31
19536;HTU21D;9913;51.168;4.124;2022-11-04T01:14:30;8.34;86.55
19536;HTU21D;9913;51.168;4.124;2022-11-04T01:16:58;8.32;86.66
19536;HTU21D;9913;51.168;4.124;2022-11-04T01:19:27;8.32;86.70
19536;HTU21D;9913;51.168;4.124;2022-11-04T01:21:55;8.37;86.54
19536;HTU21D;9913;51.168;4.124;2022-11-04T01:24:23;8.43;86.39
19536;HTU21D;9913;51.168;4.124;2022-11-04T01:26:51;8.43;86.28
19536;HTU21D;9913;51.168;4.124;2022-11-04T01:29:21;8.51;85.99
19536;HTU21D;9913;51.168;4.124;2022-11-04T01:31:49;8.63;86.06
19536;HTU21D;9913;51.168;4.124;2022-11-04T01:34:18;8.67;86.03
19536;HTU21D;9913;51.168;4.124;2022-11-04T01:36:46;8.73;85.92
19536;HTU21D;9913;51.168;4.124;2022-11-04T01:39:14;8.74;85.28
19536;HTU21D;9913;51.168;4.124;2022-11-04T01:41:42;8.77;84.84
19536;HTU21D;9913;51.168;4.124;2022-11-04T01:44:47;8.86;84.73
19536;HTU21D;9913;51.168;4.124;2022-11-04T01:47:18;8.83;84.50
19536;HTU21D;9913;51.168;4.124;2022-11-04T01:49:49;8.89;84.52
19536;HTU21D;9913;51.168;4.124;2022-11-04T01:52:21;8.87;84.27
19536;HTU21D;9913;51.168;4.124;2022-11-04T01:54:52;8.79;84.30
19536;HTU21D;9913;51.168;4.124;2022-11-04T01:57:24;8.70;84.29
19536;HTU21D;9913;51.168;4.124;2022-11-04T01:59:57;8.76;84.17
19536;HTU21D;9913;51.168;4.124;2022-11-04T02:02:43;8.73;84.58
19536;HTU21D;9913;51.168;4.124;2022-11-04T02:05:13;8.78;84.35
19536;HTU21D;9913;51.168;4.124;2022-11-04T02:07:42;8.76;84.38
19536;HTU21D;9913;51.168;4.124;2022-11-04T02:10:11;8.82;84.52
19536;HTU21D;9913;51.168;4.124;2022-11-04T02:12:39;8.78;84.11
19536;HTU21D;9913;51.168;4.124;2022-11-04T02:15:21;8.80;84.09
19536;HTU21D;9913;51.168;4.124;2022-11-04T02:18:15;8.83;83.79
19536;HTU21D;9913;51.168;4.124;2022-11-04T02:29:54;8.78;82.68
19536;HTU21D;9913;51.168;4.124;2022-11-04T02:32:33;8.77;82.10
19536;HTU21D;9913;51.168;4.124;2022-11-04T02:35:07;8.73;82.58
19536;HTU21D;9913;51.168;4.124;2022-11-04T02:37:45;8.68;82.75
19536;HTU21D;9913;51.168;4.124;2022-11-04T02:40:21;8.68;82.91
19536;HTU21D;9913;51.168;4.124;2022-11-04T02:42:55;8.60;83.00
19536;HTU21D;9913;51.168;4.124;2022-11-04T02:45:30;8.62;83.16
19536;HTU21D;9913;51.168;4.124;2022-11-04T02:48:04;8.59;83.49
19536;HTU21D;9913;51.168;4.124;2022-11-04T02:50:40;8.58;83.36
19536;HTU21D;9913;51.168;4.124;2022-11-04T02:53:14;8.53;83.60
19536;HTU21D;9913;51.168;4.124;2022-11-04T02:55:46;8.55;83.92
19536;HTU21D;9913;51.168;4.124;2022-11-04T02:58:20;8.49;84.02
19536;HTU21D;9913;51.168;4.124;2022-11-04T03:00:51;8.50;83.95
19536;HTU21D;9913;51.168;4.124;2022-11-04T03:03:24;8.42;83.78
19536;HTU21D;9913;51.168;4.124;2022-11-04T03:05:55;8.44;84.13
19536;HTU21D;9913;51.168;4.124;2022-11-04T03:08:30;8.43;83.89
19536;HTU21D;9913;51.168;4.124;2022-11-04T03:11:03;8.43;84.19
19536;HTU21D;9913;51.168;4.124;2022-11-04T03:13:35;8.45;84.40
19536;HTU21D;9913;51.168;4.124;2022-11-04T03:16:11;8.44;83.97
19536;HTU21D;9913;51.168;4.124;2022-11-04T03:18:49;8.37;83.53
19536;HTU21D;9913;51.168;4.124;2022-11-04T03:21:27;8.39;83.36
19536;HTU21D;9913;51.168;4.124;2022-11-04T03:23:59;8.28;83.76
19536;HTU21D;9913;51.168;4.124;2022-11-04T03:26:30;8.30;83.88
19536;HTU21D;9913;51.168;4.124;2022-11-04T03:29:10;8.27;84.16
19536;HTU21D;9913;51.168;4.124;2022-11-04T03:31:45;8.17;84.20
19536;HTU21D;9913;51.168;4.124;2022-11-04T03:34:15;8.14;84.58
19536;HTU21D;9913;51.168;4.124;2022-11-04T03:36:43;8.17;84.37
19536;HTU21D;9913;51.168;4.124;2022-11-04T03:39:11;8.12;84.42
19536;HTU21D;9913;51.168;4.124;2022-11-04T03:41:43;8.07;84.53
19536;HTU21D;9913;51.168;4.124;2022-11-04T03:44:12;8.06;84.81
19536;HTU21D;9913;51.168;4.124;2022-11-04T03:46:40;8.06;84.68
19536;HTU21D;9913;51.168;4.124;2022-11-04T03:49:10;8.04;84.48
19536;HTU21D;9913;51.168;4.124;2022-11-04T03:51:39;8.00;84.68
19536;HTU21D;9913;51.168;4.124;2022-11-04T03:54:07;7.96;84.97
19536;HTU21D;9913;51.168;4.124;2022-11-04T03:56:56;7.91;84.88
19536;HTU21D;9913;51.168;4.124;2022-11-04T03:59:51;7.91;85.34
19536;HTU21D;9913;51.168;4.124;2022-11-04T04:02:32;7.96;85.49
19536;HTU21D;9913;51.168;4.124;2022-11-04T04:05:11;8.07;85.78
19536;HTU21D;9913;51.168;4.124;2022-11-04T04:07:48;8.15;85.78
19536;HTU21D;9913;51.168;4.124;2022-11-04T04:10:23;8.22;85.96
19536;HTU21D;9913;51.168;4.124;2022-11-04T04:13:15;8.27;85.36
19536;HTU21D;9913;51.168;4.124;2022-11-04T04:15:49;8.31;85.14
19536;HTU21D;9913;51.168;4.124;2022-11-04T04:18:28;8.29;85.19
19536;HTU21D;9913;51.168;4.124;2022-11-04T04:21:01;8.27;85.20
19536;HTU21D;9913;51.168;4.124;2022-11-04T04:23:33;8.20;85.09
19536;HTU21D;9913;51.168;4.124;2022-11-04T04:26:21;8.17;85.16
19536;HTU21D;9913;51.168;4.124;2022-11-04T04:29:08;8.26;85.31
19536;HTU21D;9913;51.168;4.124;2022-11-04T04:31:38;8.26;85.19
19536;HTU21D;9913;51.168;4.124;2022-11-04T04:34:25;8.18;84.68
19536;HTU21D;9913;51.168;4.124;2022-11-04T04:37:00;8.23;84.59
19536;HTU21D;9913;51.168;4.124;2022-11-04T04:39:35;8.32;84.97
19536;HTU21D;9913;51.168;4.124;2022-11-04T04:42:23;8.32;84.59
19536;HTU21D;9913;51.168;4.124;2022-11-04T04:45:17;8.33;84.53
19536;HTU21D;9913;51.168;4.124;2022-11-04T04:47:46;8.36;84.58
19536;HTU21D;9913;51.168;4.124;2022-11-04T04:50:16;8.44;84.50
19536;HTU21D;9913;51.168;4.124;2022-11-04T04:52:48;8.47;84.36
19536;HTU21D;9913;51.168;4.124;2022-11-04T04:55:17;8.52;84.32
19536;HTU21D;9913;51.168;4.124;2022-11-04T04:57:46;8.55;84.24
19536;HTU21D;9913;51.168;4.124;2022-11-04T05:00:16;8.62;84.55
19536;HTU21D;9913;51.168;4.124;2022-11-04T05:02:45;8.61;84.60
19536;HTU21D;9913;51.168;4.124;2022-11-04T05:05:14;8.65;84.81
19536;HTU21D;9913;51.168;4.124;2022-11-04T05:07:42;8.66;84.74
19536;HTU21D;9913;51.168;4.124;2022-11-04T05:10:13;8.70;85.04
19536;HTU21D;9913;51.168;4.124;2022-11-04T05:12:42;8.74;84.92
19536;HTU21D;9913;51.168;4.124;2022-11-04T05:15:29;8.76;84.17
19536;HTU21D;9913;51.168;4.124;2022-11-04T05:17:59;8.74;84.24
19536;HTU21D;9913;51.168;4.124;2022-11-04T05:20:27;8.77;84.00
19536;HTU21D;9913;51.168;4.124;2022-11-04T05:22:56;8.77;84.13
19536;HTU21D;9913;51.168;4.124;2022-11-04T05:25:25;8.82;84.45
19536;HTU21D;9913;51.168;4.124;2022-11-04T05:27:54;8.88;84.25
19536;HTU21D;9913;51.168;4.124;2022-11-04T05:30:26;8.92;84.26
19536;HTU21D;9913;51.168;4.124;2022-11-04T05:32:54;8.91;83.96
19536;HTU21D;9913;51.168;4.124;2022-11-04T05:35:29;8.92;84.15
19536;HTU21D;9913;51.168;4.124;2022-11-04T05:37:57;8.92;84.10
19536;HTU21D;9913;51.168;4.124;2022-11-04T05:40:27;9.01;84.07
19536;HTU21D;9913;51.168;4.124;2022-11-04T05:42:57;8.98;84.07
19536;HTU21D;9913;51.168;4.124;2022-11-04T05:45:26;9.03;84.50
19536;HTU21D;9913;51.168;4.124;2022-11-04T05:47:58;9.04;84.29
19536;HTU21D;9913;51.168;4.124;2022-11-04T05:50:27;9.06;84.39
19536;HTU21D;9913;51.168;4.124;2022-11-04T05:52:56;9.04;84.41
19536;HTU21D;9913;51.168;4.124;2022-11-04T05:55:24;9.03;84.71
19536;HTU21D;9913;51.168;4.124;2022-11-04T05:57:54;9.11;84.35
19536;HTU21D;9913;51.168;4.124;2022-11-04T06:00:24;9.07;84.52
19536;HTU21D;9913;51.168;4.124;2022-11-04T06:02:53;9.14;84.54
19536;HTU21D;9913;51.168;4.124;2022-11-04T06:05:23;9.18;85.00
19536;HTU21D;9913;51.168;4.124;2022-11-04T06:07:51;9.15;85.15
19536;HTU21D;9913;51.168;4.124;2022-11-04T06:10:20;9.10;85.30
19536;HTU21D;9913;51.168;4.124;2022-11-04T06:12:48;9.16;85.10
19536;HTU21D;9913;51.168;4.124;2022-11-04T06:15:18;9.17;85.19
19536;HTU21D;9913;51.168;4.124;2022-11-04T06:17:46;9.16;85.64
19536;HTU21D;9913;51.168;4.124;2022-11-04T06:20:14;9.15;86.15
19536;HTU21D;9913;51.168;4.124;2022-11-04T06:22:43;9.10;86.61
19536;HTU21D;9913;51.168;4.124;2022-11-04T06:25:11;9.12;86.98
19536;HTU21D;9913;51.168;4.124;2022-11-04T06:27:39;9.15;87.03
19536;HTU21D;9913;51.168;4.124;2022-11-04T06:30:09;9.10;87.20
19536;HTU21D;9913;51.168;4.124;2022-11-04T06:32:40;9.17;87.34
19536;HTU21D;9913;51.168;4.124;2022-11-04T06:35:08;9.17;87.25
19536;HTU21D;9913;51.168;4.124;2022-11-04T06:37:36;9.16;87.08
19536;HTU21D;9913;51.168;4.124;2022-11-04T06:40:06;9.15;87.23
19536;HTU21D;9913;51.168;4.124;2022-11-04T06:42:34;9.15;87.59
19536;HTU21D;9913;51.168;4.124;2022-11-04T06:45:03;9.17;88.03
19536;HTU21D;9913;51.168;4.124;2022-11-04T06:47:32;9.23;88.21
19536;HTU21D;9913;51.168;4.124;2022-11-04T06:50:02;9.18;88.11
19536;HTU21D;9913;51.168;4.124;2022-11-04T06:52:30;9.19;88.09
19536;HTU21D;9913;51.168;4.124;2022-11-04T06:55:04;9.18;88.44
19536;HTU21D;9913;51.168;4.124;2022-11-04T06:57:33;9.22;88.51
19536;HTU21D;9913;51.168;4.124;2022-11-04T07:00:02;9.25;88.80
19536;HTU21D;9913;51.168;4.124;2022-11-04T07:02:30;9.27;88.95
19536;HTU21D;9913;51.168;4.124;2022-11-04T07:04:58;9.29;88.87
19536;HTU21D;9913;51.168;4.124;2022-11-04T07:07:29;9.30;88.98
19536;HTU21D;9913;51.168;4.124;2022-11-04T07:09:57;9.27;88.89
19536;HTU21D;9913;51.168;4.124;2022-11-04T07:12:26;9.29;88.88
19536;HTU21D;9913;51.168;4.124;2022-11-04T07:14:54;9.35;88.73
19536;HTU21D;9913;51.168;4.124;2022-11-04T07:17:22;9.37;88.73
19536;HTU21D;9913;51.168;4.124;2022-11-04T07:19:53;9.39;88.72
19536;HTU21D;9913;51.168;4.124;2022-11-04T07:22:21;9.40;88.99
19536;HTU21D;9913;51.168;4.124;2022-11-04T07:24:55;9.47;89.12
19536;HTU21D;9913;51.168;4.124;2022-11-04T07:27:23;9.44;88.80
19536;HTU21D;9913;51.168;4.124;2022-11-04T07:29:52;9.49;88.56
19536;HTU21D;9913;51.168;4.124;2022-11-04T07:32:20;9.46;88.51
19536;HTU21D;9913;51.168;4.124;2022-11-04T07:34:50;9.59;88.71
19536;HTU21D;9913;51.168;4.124;2022-11-04T07:37:19;9.56;88.61
19536;HTU21D;9913;51.168;4.124;2022-11-04T07:39:49;9.62;88.60
19536;HTU21D;9913;51.168;4.124;2022-11-04T07:42:21;9.76;88.26
19536;HTU21D;9913;51.168;4.124;2022-11-04T07:44:53;9.85;87.27
19536;HTU21D;9913;51.168;4.124;2022-11-04T07:47:23;9.88;86.54
19536;HTU21D;9913;51.168;4.124;2022-11-04T07:49:51;9.89;85.85
19536;HTU21D;9913;51.168;4.124;2022-11-04T07:52:19;9.89;85.65
19536;HTU21D;9913;51.168;4.124;2022-11-04T07:54:48;10.01;85.46
19536;HTU21D;9913;51.168;4.124;2022-11-04T07:57:16;10.06;85.39
19536;HTU21D;9913;51.168;4.124;2022-11-04T07:59:45;10.05;84.95
19536;HTU21D;9913;51.168;4.124;2022-11-04T08:02:14;10.07;85.29
19536;HTU21D;9913;51.168;4.124;2022-11-04T08:04:49;10.07;85.61
19536;HTU21D;9913;51.168;4.124;2022-11-04T08:07:18;9.99;85.61
19536;HTU21D;9913;51.168;4.124;2022-11-04T08:09:46;9.99;85.08
19536;HTU21D;9913;51.168;4.124;2022-11-04T08:12:14;9.95;84.58
19536;HTU21D;9913;51.168;4.124;2022-11-04T08:14:42;9.99;83.55
19536;HTU21D;9913;51.168;4.124;2022-11-04T08:17:12;10.00;82.66
19536;HTU21D;9913;51.168;4.124;2022-11-04T08:19:40;10.14;83.27
19536;HTU21D;9913;51.168;4.124;2022-11-04T08:22:08;10.27;83.29
19536;HTU21D;9913;51.168;4.124;2022-11-04T08:24:37;10.30;82.94
19536;HTU21D;9913;51.168;4.124;2022-11-04T08:27:06;10.41;83.23
19536;HTU21D;9913;51.168;4.124;2022-11-04T08:29:36;10.46;81.89
19536;HTU21D;9913;51.168;4.124;2022-11-04T08:32:05;10.50;81.49
19536;HTU21D;9913;51.168;4.124;2022-11-04T08:34:35;10.53;81.29
19536;HTU21D;9913;51.168;4.124;2022-11-04T08:37:03;10.60;82.09
19536;HTU21D;9913;51.168;4.124;2022-11-04T08:39:32;10.64;81.62
19536;HTU21D;9913;51.168;4.124;2022-11-04T08:42:01;10.65;81.47
19536;HTU21D;9913;51.168;4.124;2022-11-04T08:44:29;10.62;81.22
19536;HTU21D;9913;51.168;4.124;2022-11-04T08:46:57;10.69;81.20
19536;HTU21D;9913;51.168;4.124;2022-11-04T08:49:25;10.67;79.95
19536;HTU21D;9913;51.168;4.124;2022-11-04T08:51:55;10.78;80.69
19536;HTU21D;9913;51.168;4.124;2022-11-04T08:54:26;10.71;80.75
19536;HTU21D;9913;51.168;4.124;2022-11-04T08:56:54;10.79;80.73
19536;HTU21D;9913;51.168;4.124;2022-11-04T08:59:23;10.85;80.32
19536;HTU21D;9913;51.168;4.124;2022-11-04T09:01:51;10.85;80.33
19536;HTU21D;9913;51.168;4.124;2022-11-04T09:04:19;10.75;80.68
19536;HTU21D;9913;51.168;4.124;2022-11-04T09:06:48;10.71;79.77
19536;HTU21D;9913;51.168;4.124;2022-11-04T09:09:18;10.68;79.30
19536;HTU21D;9913;51.168;4.124;2022-11-04T09:11:47;10.69;80.08
19536;HTU21D;9913;51.168;4.124;2022-11-04T09:14:15;10.57;80.65
19536;HTU21D;9913;51.168;4.124;2022-11-04T09:16:44;10.65;80.46
19536;HTU21D;9913;51.168;4.124;2022-11-04T09:19:12;10.57;80.43
19536;HTU21D;9913;51.168;4.124;2022-11-04T09:21:41;10.52;80.52
19536;HTU21D;9913;51.168;4.124;2022-11-04T09:24:09;10.58;80.23
19536;HTU21D;9913;51.168;4.124;2022-11-04T09:26:39;10.54;80.48
19536;HTU21D;9913;51.168;4.124;2022-11-04T09:29:07;10.62;79.98
19536;HTU21D;9913;51.168;4.124;2022-11-04T09:31:36;10.67;79.78
19536;HTU21D;9913;51.168;4.124;2022-11-04T09:34:04;10.66;79.17
19536;HTU21D;9913;51.168;4.124;2022-11-04T09:36:32;10.63;78.72
19536;HTU21D;9913;51.168;4.124;2022-11-04T09:39:01;10.66;78.76
19536;HTU21D;9913;51.168;4.124;2022-11-04T09:44:27;10.94;78.23
19536;HTU21D;9913;51.168;4.124;2022-11-04T09:46:59;11.02;78.11
19536;HTU21D;9913;51.168;4.124;2022-11-04T09:49:33;11.23;78.34
19536;HTU21D;9913;51.168;4.124;2022-11-04T09:52:07;11.13;78.28
19536;HTU21D;9913;51.168;4.124;2022-11-04T09:54:43;11.24;77.44
19536;HTU21D;9913;51.168;4.124;2022-11-04T09:57:16;11.29;77.73
19536;HTU21D;9913;51.168;4.124;2022-11-04T09:59:47;11.22;77.06
19536;HTU21D;9913;51.168;4.124;2022-11-04T10:02:34;11.26;77.15
19536;HTU21D;9913;51.168;4.124;2022-11-04T10:05:16;11.29;77.56
19536;HTU21D;9913;51.168;4.124;2022-11-04T10:08:03;11.27;77.50
19536;HTU21D;9913;51.168;4.124;2022-11-04T10:10:41;11.24;77.53
19536;HTU21D;9913;51.168;4.124;2022-11-04T10:13:21;11.34;77.10
19536;HTU21D;9913;51.168;4.124;2022-11-04T10:16:03;11.16;77.06
19536;HTU21D;9913;51.168;4.124;2022-11-04T10:21:44;11.14;77.34
19536;HTU21D;9913;51.168;4.124;2022-11-04T10:24:34;11.24;77.85
19536;HTU21D;9913;51.168;4.124;2022-11-04T10:27:12;11.31;78.03
19536;HTU21D;9913;51.168;4.124;2022-11-04T10:29:44;11.34;78.50
19536;HTU21D;9913;51.168;4.124;2022-11-04T10:32:21;11.32;78.34
19536;HTU21D;9913;51.168;4.124;2022-11-04T10:34:55;11.29;78.05
19536;HTU21D;9913;51.168;4.124;2022-11-04T10:37:25;11.25;77.69
19536;HTU21D;9913;51.168;4.124;2022-11-04T10:40:00;11.28;78.23
19536;HTU21D;9913;51.168;4.124;2022-11-04T10:42:29;11.26;78.13
19536;HTU21D;9913;51.168;4.124;2022-11-04T10:44:59;11.40;77.65
19536;HTU21D;9913;51.168;4.124;2022-11-04T10:47:39;11.57;78.16
19536;HTU21D;9913;51.168;4.124;2022-11-04T10:50:22;11.61;78.75
19536;HTU21D;9913;51.168;4.124;2022-11-04T10:53:09;11.73;78.00
19536;HTU21D;9913;51.168;4.124;2022-11-04T10:55:44;11.88;77.18
19536;HTU21D;9913;51.168;4.124;2022-11-04T10:58:20;11.79;76.88
19536;HTU21D;9913;51.168;4.124;2022-11-04T11:00:49;12.10;76.93
19536;HTU21D;9913;51.168;4.124;2022-11-04T11:03:29;12.14;76.76
19536;HTU21D;9913;51.168;4.124;2022-11-04T11:06:14;12.19;77.17
19536;HTU21D;9913;51.168;4.124;2022-11-04T11:08:43;12.29;76.70
19536;HTU21D;9913;51.168;4.124;2022-11-04T11:11:12;12.21;76.37
19536;HTU21D;9913;51.168;4.124;2022-11-04T11:13:43;12.25;76.53
19536;HTU21D;9913;51.168;4.124;2022-11-04T11:16:17;12.37;76.31
19536;HTU21D;9913;51.168;4.124;2022-11-04T11:19:08;12.44;75.72
19536;HTU21D;9913;51.168;4.124;2022-11-04T11:21:42;12.46;76.29
19536;HTU21D;9913;51.168;4.124;2022-11-04T11:24:18;12.38;76.44
19536;HTU21D;9913;51.168;4.124;2022-11-04T11:26:48;12.62;75.73
19536;HTU21D;9913;51.168;4.124;2022-11-04T11:29:22;12.95;76.11
19536;HTU21D;9913;51.168;4.124;2022-11-04T11:31:52;12.82;76.06
19536;HTU21D;9913;51.168;4.124;2022-11-04T11:34:25;12.94;75.89
19536;HTU21D;9913;51.168;4.124;2022-11-04T11:36:56;12.93;75.79
19536;HTU21D;9913;51.168;4.124;2022-11-04T11:39:25;12.73;74.98
19536;HTU21D;9913;51.168;4.124;2022-11-04T11:41:57;12.60;76.86
19536;HTU21D;9913;51.168;4.124;2022-11-04T11:44:29;12.61;75.76
19536;HTU21D;9913;51.168;4.124;2022-11-04T11:47:00;12.51;75.54
19536;HTU21D;9913;51.168;4.124;2022-11-04T11:49:32;12.36;76.89
19536;HTU21D;9913;51.168;4.124;2022-11-04T11:52:26;12.23;76.82
19536;HTU21D;9913;51.168;4.124;2022-11-04T11:55:02;12.42;76.51
19536;HTU21D;9913;51.168;4.124;2022-11-04T11:57:38;12.55;76.76
19536;HTU21D;9913;51.168;4.124;2022-11-04T12:00:13;12.67;76.15
19536;HTU21D;9913;51.168;4.124;2022-11-04T12:03:10;12.70;75.57
19536;HTU21D;9913;51.168;4.124;2022-11-04T12:05:46;12.78;76.07
19536;HTU21D;9913;51.168;4.124;2022-11-04T12:12:18;12.59;76.25
19536;HTU21D;9913;51.168;4.124;2022-11-04T12:14:59;12.48;77.10
19536;HTU21D;9913;51.168;4.124;2022-11-04T12:17:50;12.17;76.96
19536;HTU21D;9913;51.168;4.124;2022-11-04T12:20:27;12.15;76.87
19536;HTU21D;9913;51.168;4.124;2022-11-04T12:23:07;11.90;77.02
19536;HTU21D;9913;51.168;4.124;2022-11-04T12:25:43;11.76;77.38
19536;HTU21D;9913;51.168;4.124;2022-11-04T12:28:21;11.72;77.76
19536;HTU21D;9913;51.168;4.124;2022-11-04T12:30:59;11.84;77.29
19536;HTU21D;9913;51.168;4.124;2022-11-04T12:33:36;12.26;76.40
19536;HTU21D;9913;51.168;4.124;2022-11-04T12:36:37;12.55;77.34
19536;HTU21D;9913;51.168;4.124;2022-11-04T12:39:20;12.94;76.19
19536;HTU21D;9913;51.168;4.124;2022-11-04T12:42:03;13.21;75.22
19536;HTU21D;9913;51.168;4.124;2022-11-04T12:44:53;13.25;76.63
19536;HTU21D;9913;51.168;4.124;2022-11-04T12:47:32;13.26;75.21
19536;HTU21D;9913;51.168;4.124;2022-11-04T12:50:08;13.08;75.47
19536;HTU21D;9913;51.168;4.124;2022-11-04T12:52:58;12.85;74.99
19536;HTU21D;9913;51.168;4.124;2022-11-04T12:55:42;12.89;75.37
19536;HTU21D;9913;51.168;4.124;2022-11-04T12:58:27;12.91;75.90
19536;HTU21D;9913;51.168;4.124;2022-11-04T13:01:01;12.84;74.45
19536;HTU21D;9913;51.168;4.124;2022-11-04T13:03:33;12.76;74.99
19536;HTU21D;9913;51.168;4.124;2022-11-04T13:06:07;12.58;75.89
19536;HTU21D;9913;51.168;4.124;2022-11-04T13:08:41;12.50;76.24
19536;HTU21D;9913;51.168;4.124;2022-11-04T13:11:17;12.56;75.94
19536;HTU21D;9913;51.168;4.124;2022-11-04T13:13:55;12.41;76.74
19536;HTU21D;9913;51.168;4.124;2022-11-04T13:16:29;12.20;74.57
19536;HTU21D;9913;51.168;4.124;2022-11-04T13:18:59;11.84;75.99
19536;HTU21D;9913;51.168;4.124;2022-11-04T13:21:31;11.46;74.89
19536;HTU21D;9913;51.168;4.124;2022-11-04T13:24:02;11.14;75.12
19536;HTU21D;9913;51.168;4.124;2022-11-04T13:26:32;10.95;74.92
19536;HTU21D;9913;51.168;4.124;2022-11-04T13:29:06;10.81;75.99
19536;HTU21D;9913;51.168;4.124;2022-11-04T13:31:46;10.67;76.92
19536;HTU21D;9913;51.168;4.124;2022-11-04T13:34:27;10.57;76.70
19536;HTU21D;9913;51.168;4.124;2022-11-04T13:37:07;10.35;77.56
19536;HTU21D;9913;51.168;4.124;2022-11-04T13:39:41;10.16;78.09
19536;HTU21D;9913;51.168;4.124;2022-11-04T13:42:47;9.99;78.73
19536;HTU21D;9913;51.168;4.124;2022-11-04T13:45:19;9.93;79.18
19536;HTU21D;9913;51.168;4.124;2022-11-04T13:47:50;9.95;79.75
19536;HTU21D;9913;51.168;4.124;2022-11-04T13:50:32;9.94;80.40
19536;HTU21D;9913;51.168;4.124;2022-11-04T13:53:03;9.93;80.22
19536;HTU21D;9913;51.168;4.124;2022-11-04T13:55:33;9.94;80.41
19536;HTU21D;9913;51.168;4.124;2022-11-04T13:58:05;10.05;80.63
19536;HTU21D;9913;51.168;4.124;2022-11-04T14:00:34;10.08;80.86
19536;HTU21D;9913;51.168;4.124;2022-11-04T14:06:06;10.21;80.24
19536;HTU21D;9913;51.168;4.124;2022-11-04T14:08:34;10.36;80.84
19536;HTU21D;9913;51.168;4.124;2022-11-04T14:11:09;10.49;81.12
19536;HTU21D;9913;51.168;4.124;2022-11-04T14:13:46;10.49;80.09
19536;HTU21D;9913;51.168;4.124;2022-11-04T14:16:39;10.58;80.08
19536;HTU21D;9913;51.168;4.124;2022-11-04T14:22:33;10.57;79.83
19536;HTU21D;9913;51.168;4.124;2022-11-04T14:25:18;10.53;79.66
19536;HTU21D;9913;51.168;4.124;2022-11-04T14:27:47;10.56;79.49
19536;HTU21D;9913;51.168;4.124;2022-11-04T14:30:33;10.58;79.56
19536;HTU21D;9913;51.168;4.124;2022-11-04T14:33:04;10.56;79.12
19536;HTU21D;9913;51.168;4.124;2022-11-04T14:35:37;10.56;79.39
19536;HTU21D;9913;51.168;4.124;2022-11-04T14:38:15;10.57;79.28
19536;HTU21D;9913;51.168;4.124;2022-11-04T14:40:50;10.53;79.17
19536;HTU21D;9913;51.168;4.124;2022-11-04T14:43:30;10.46;80.14
19536;HTU21D;9913;51.168;4.124;2022-11-04T14:46:02;10.38;80.00
19536;HTU21D;9913;51.168;4.124;2022-11-04T14:48:31;10.41;80.04
19536;HTU21D;9913;51.168;4.124;2022-11-04T14:50:59;10.45;79.23
19536;HTU21D;9913;51.168;4.124;2022-11-04T14:53:33;10.44;79.04
19536;HTU21D;9913;51.168;4.124;2022-11-04T14:56:05;10.40;79.49
19536;HTU21D;9913;51.168;4.124;2022-11-04T14:58:52;10.33;78.78
19536;HTU21D;9913;51.168;4.124;2022-11-04T15:01:23;10.29;79.04
19536;HTU21D;9913;51.168;4.124;2022-11-04T15:04:04;10.21;79.52
19536;HTU21D;9913;51.168;4.124;2022-11-04T15:06:40;10.13;79.53
19536;HTU21D;9913;51.168;4.124;2022-11-04T15:09:26;10.12;80.04
19536;HTU21D;9913;51.168;4.124;2022-11-04T15:12:04;10.13;80.52
19536;HTU21D;9913;51.168;4.124;2022-11-04T15:14:47;10.13;81.07
19536;HTU21D;9913;51.168;4.124;2022-11-04T15:17:18;10.13;81.41
19536;HTU21D;9913;51.168;4.124;2022-11-04T15:19:48;10.13;81.52
19536;HTU21D;9913;51.168;4.124;2022-11-04T15:22:18;10.13;81.97
19536;HTU21D;9913;51.168;4.124;2022-11-04T15:24:47;10.20;82.48
19536;HTU21D;9913;51.168;4.124;2022-11-04T15:27:18;10.18;82.06
19536;HTU21D;9913;51.168;4.124;2022-11-04T15:29:54;10.26;81.78
19536;HTU21D;9913;51.168;4.124;2022-11-04T15:32:25;10.28;81.76
19536;HTU21D;9913;51.168;4.124;2022-11-04T15:34:54;10.29;81.76
19536;HTU21D;9913;51.168;4.124;2022-11-04T15:37:25;10.28;81.16
19536;HTU21D;9913;51.168;4.124;2022-11-04T15:39:56;10.21;81.36
19536;HTU21D;9913;51.168;4.124;2022-11-04T15:42:27;10.16;81.92
19536;HTU21D;9913;51.168;4.124;2022-11-04T15:45:32;10.07;82.34
19536;HTU21D;9913;51.168;4.124;2022-11-04T15:48:22;9.98;82.91
19536;HTU21D;9913;51.168;4.124;2022-11-04T15:51:03;9.94;83.36
19536;HTU21D;9913;51.168;4.124;2022-11-04T15:53:46;9.81;83.80
19536;HTU21D;9913;51.168;4.124;2022-11-04T15:56:16;9.77;84.19
19536;HTU21D;9913;51.168;4.124;2022-11-04T15:58:46;9.76;84.42
19536;HTU21D;9913;51.168;4.124;2022-11-04T16:01:16;9.71;84.36
19536;HTU21D;9913;51.168;4.124;2022-11-04T16:03:54;9.74;84.66
19536;HTU21D;9913;51.168;4.124;2022-11-04T16:06:34;9.71;84.67
19536;HTU21D;9913;51.168;4.124;2022-11-04T16:09:18;9.72;84.85
19536;HTU21D;9913;51.168;4.124;2022-11-04T16:12:04;9.67;84.77
19536;HTU21D;9913;51.168;4.124;2022-11-04T16:14:33;9.59;85.06
19536;HTU21D;9913;51.168;4.124;2022-11-04T16:17:01;9.51;85.32
19536;HTU21D;9913;51.168;4.124;2022-11-04T16:19:31;9.46;85.81
19536;HTU21D;9913;51.168;4.124;2022-11-04T16:22:02;9.46;85.90
19536;HTU21D;9913;51.168;4.124;2022-11-04T16:24:34;9.37;85.95
19536;HTU21D;9913;51.168;4.124;2022-11-04T16:27:07;9.27;85.88
19536;HTU21D;9913;51.168;4.124;2022-11-04T16:29:37;9.19;86.10
19536;HTU21D;9913;51.168;4.124;2022-11-04T16:32:17;9.08;86.00
19536;HTU21D;9913;51.168;4.124;2022-11-04T16:34:48;9.00;86.45
19536;HTU21D;9913;51.168;4.124;2022-11-04T16:37:17;8.87;86.36
19536;HTU21D;9913;51.168;4.124;2022-11-04T16:39:45;8.74;86.46
19536;HTU21D;9913;51.168;4.124;2022-11-04T16:42:16;8.76;86.58
19536;HTU21D;9913;51.168;4.124;2022-11-04T16:44:48;8.65;86.78